< < Back
Terminal Aerodrome Forecast


Current Version              Previous Versions:   1  2  3  4  5  6  7  8  9  

Terminal Aerodrome Forecast

557
FTUS44 KBMX 240520
TAFTCL
TAF
KTCL 240520Z 2406/2506 00000KT P6SM FEW250=

Latest METAR

454
SAUS70 KWBC 242100 RRM
MTRTCL
METAR KTCL 242053Z VRB03KT 9SM CLR 31/13 A3008 RMK AO2 SLP184 T03060128
56013


USA.gov is the U.S. government's official web portal to all federal, state and local government web resources and services.